Time;durP1;ratioP1;P1;durP2;ratioP2;P2;SDS_P1;SDS_P2;PMS_P1;PMS_P2;Temp;Humidity;BMP_temperature;BMP_pressure;BME280_temperature;BME280_humidity;BME280_pressure;Samples;Min_cycle;Max_cycle;Signal;HPM_P1;HPM_P2
2022/01/12 13:33:01;;;;;;;63.45;22.33;;;;;;;4.37;89.28;103952.78;5049213;27;1238152;-90
2022/01/12 13:35:29;;;;;;;58.92;21.10;;;;;;;4.53;89.58;103947.25;5085900;28;20371;-89
2022/01/12 13:37:58;;;;;;;47.40;17.48;;;;;;;4.41;88.53;103935.44;5098620;28;20119;-90
2022/01/12 13:40:23;;;;;;;52.03;18.75;;;;;;;4.49;89.10;103955.84;5088507;28;20015;-90
2022/01/12 13:42:54;;;;;;;51.13;17.67;;;;;;;4.51;88.78;103958.50;5096928;28;20028;-90
2022/01/12 13:45:29;;;;;;;47.15;18.30;;;;;;;4.52;89.55;103960.28;5085817;28;20031;-90
2022/01/12 13:47:59;;;;;;;50.88;17.10;;;;;;;4.59;89.16;103959.66;5085406;28;20037;-90
2022/01/12 13:50:36;;;;;;;43.83;16.33;;;;;;;4.60;88.85;103964.94;5104965;28;20027;-90
2022/01/12 13:53:03;;;;;;;45.75;17.60;;;;;;;4.45;88.16;103963.53;5092632;28;20046;-90
2022/01/12 13:55:29;;;;;;;54.33;19.08;;;;;;;4.46;88.96;103960.97;5090965;28;20046;-90
2022/01/12 13:57:56;;;;;;;46.55;18.13;;;;;;;4.59;88.76;103957.06;5085119;28;20478;-90
2022/01/12 14:00:22;;;;;;;43.22;17.67;;;;;;;4.63;88.09;103950.19;5098888;28;20036;-90
2022/01/12 14:02:47;;;;;;;45.22;18.25;;;;;;;4.71;88.11;103957.50;5086990;28;20027;-90
2022/01/12 14:05:18;;;;;;;41.30;17.48;;;;;;;4.64;87.61;103949.34;5085712;28;20122;-90
2022/01/12 14:07:59;;;;;;;45.00;16.23;;;;;;;4.69;87.57;103958.25;5092200;28;20024;-90
2022/01/12 14:10:27;;;;;;;44.55;15.07;;;;;;;4.67;87.50;103954.72;5088014;28;20019;-90
2022/01/12 14:12:53;;;;;;;48.92;16.52;;;;;;;4.60;87.13;103957.09;5102148;28;20456;-90
2022/01/12 14:15:27;;;;;;;44.20;16.15;;;;;;;4.45;87.31;103948.72;5087910;28;20031;-90
2022/01/12 14:17:53;;;;;;;42.70;16.88;;;;;;;4.37;87.53;103952.78;5097057;28;20046;-90
2022/01/12 14:20:31;;;;;;;50.05;17.95;;;;;;;4.34;88.07;103957.94;5086614;28;20085;-90
2022/01/12 14:23:01;;;;;;;47.90;17.63;;;;;;;4.45;87.98;103976.63;5083313;28;20036;-90
2022/01/12 14:25:59;;;;;;;48.88;16.80;;;;;;;4.44;88.15;103981.00;5063273;28;20542;-90
2022/01/12 14:28:30;;;;;;;49.53;16.60;;;;;;;4.49;88.14;103978.53;5059581;28;20051;-91
2022/01/12 14:30:56;;;;;;;43.63;16.42;;;;;;;4.47;87.98;103982.81;5067137;28;20025;-90
2022/01/12 14:33:22;;;;;;;47.38;17.17;;;;;;;4.32;88.02;103970.06;5068161;28;20130;-90
2022/01/12 14:35:49;;;;;;;46.50;16.15;;;;;;;4.37;88.12;103978.97;5064927;28;20560;-90
2022/01/12 14:38:14;;;;;;;43.40;15.98;;;;;;;4.28;87.70;103965.53;5065866;28;20323;-90
2022/01/12 14:40:42;;;;;;;50.38;17.52;;;;;;;4.34;88.64;103977.16;5067171;28;20062;-90
2022/01/12 14:43:08;;;;;;;45.75;17.52;;;;;;;4.43;87.98;103970.44;5062735;28;20586;-90
2022/01/12 14:45:39;;;;;;;47.85;15.18;;;;;;;4.50;88.08;103975.97;5050904;28;20061;-90
2022/01/12 14:48:07;;;;;;;49.30;17.00;;;;;;;4.30;87.50;103966.50;5052681;28;20228;-90
2022/01/12 14:50:33;;;;;;;47.25;17.60;;;;;;;4.25;87.81;103975.94;5053465;28;20403;-90
2022/01/12 14:53:00;;;;;;;53.78;16.17;;;;;;;4.27;88.21;103974.25;5051695;28;20123;-90
2022/01/12 14:55:27;;;;;;;46.47;17.02;;;;;;;4.31;88.36;103966.56;5071128;28;20028;-90
2022/01/12 14:57:52;;;;;;;44.03;17.05;;;;;;;4.29;88.32;103960.38;5055375;28;20032;-90
2022/01/12 15:00:24;;;;;;;44.88;16.67;;;;;;;4.24;87.94;103961.94;5050487;28;20505;-90
2022/01/12 15:03:00;;;;;;;50.97;17.90;;;;;;;4.25;88.86;103963.72;5050896;28;20073;-90
2022/01/12 15:05:30;;;;;;;50.50;18.75;;;;;;;4.23;88.42;103967.09;5063191;28;20509;-90
2022/01/12 15:07:56;;;;;;;43.70;17.45;;;;;;;4.29;88.67;103969.94;5061877;28;20107;-90
2022/01/12 15:10:22;;;;;;;47.88;17.25;;;;;;;4.20;88.30;103965.28;5064076;28;20505;-90
2022/01/12 15:12:51;;;;;;;58.67;20.10;;;;;;;4.16;88.15;103958.16;5064155;28;20032;-90
2022/01/12 15:15:17;;;;;;;46.03;16.02;;;;;;;4.22;88.75;103960.09;5062109;28;20479;-89
2022/01/12 15:17:43;;;;;;;43.17;17.90;;;;;;;4.26;88.47;103951.50;5062797;28;20382;-90
2022/01/12 15:20:11;;;;;;;47.78;16.83;;;;;;;4.27;88.61;103959.41;5053990;28;20037;-89
2022/01/12 15:22:37;;;;;;;47.08;17.42;;;;;;;4.23;88.52;103952.28;5064629;28;20422;-90
2022/01/12 15:25:04;;;;;;;47.88;16.63;;;;;;;4.19;88.49;103944.25;5050858;28;20044;-90
2022/01/12 15:27:30;;;;;;;61.30;19.70;;;;;;;4.14;88.69;103946.72;5064233;28;20515;-89
2022/01/12 15:29:56;;;;;;;51.10;19.33;;;;;;;4.16;88.52;103949.41;5052065;28;20044;-90
2022/01/12 15:32:22;;;;;;;57.30;19.00;;;;;;;4.09;89.09;103937.78;5050387;28;20051;-90
2022/01/12 15:34:48;;;;;;;53.70;20.05;;;;;;;4.20;89.21;103959.16;5054207;28;20119;-90
2022/01/12 15:37:13;;;;;;;50.95;19.20;;;;;;;4.21;89.12;103951.34;5065419;28;20138;-90
2022/01/12 15:39:38;;;;;;;46.67;17.83;;;;;;;4.26;88.92;103957.63;5050809;28;20021;-90
2022/01/12 15:42:04;;;;;;;51.78;18.05;;;;;;;4.17;88.64;103965.16;5056651;28;20027;-89
2022/01/12 15:44:33;;;;;;;51.83;19.48;;;;;;;4.14;88.77;103972.88;5065807;28;20045;-89
2022/01/12 15:46:59;;;;;;;58.13;18.85;;;;;;;4.16;89.14;103976.47;5064176;28;20340;-89
2022/01/12 15:49:24;;;;;;;50.38;18.33;;;;;;;4.17;89.05;103977.38;5055569;28;20468;-89
2022/01/12 15:51:49;;;;;;;46.28;17.00;;;;;;;4.11;88.76;103975.41;5064045;28;20043;-89
2022/01/12 15:54:14;;;;;;;58.30;20.10;;;;;;;4.03;88.84;103967.28;5063260;28;20067;-89
2022/01/12 15:56:40;;;;;;;47.65;17.25;;;;;;;4.06;88.84;103970.00;5054259;28;20036;-90
2022/01/12 15:59:05;;;;;;;52.05;19.27;;;;;;;4.07;89.19;103978.75;5053809;28;20028;-89
2022/01/12 16:01:31;;;;;;;57.05;20.35;;;;;;;4.02;88.88;103975.97;5066547;28;20036;-89
2022/01/12 16:03:57;;;;;;;56.45;20.42;;;;;;;3.97;88.93;103980.13;5065247;28;20533;-90
2022/01/12 16:06:24;;;;;;;54.28;19.20;;;;;;;3.92;88.87;103989.56;5049796;28;20032;-89
2022/01/12 16:08:50;;;;;;;51.08;17.75;;;;;;;3.99;89.08;103988.94;5058724;28;20485;-89
2022/01/12 16:11:16;;;;;;;50.42;17.52;;;;;;;4.02;89.01;103989.06;5053054;28;20036;-90
2022/01/12 16:13:43;;;;;;;53.35;18.55;;;;;;;3.94;88.89;103982.63;5053534;28;20111;-90
2022/01/12 16:16:09;;;;;;;59.78;20.42;;;;;;;3.87;89.20;103984.94;5047216;28;20499;-89
2022/01/12 16:18:36;;;;;;;55.58;19.58;;;;;;;3.89;89.50;103986.81;5053033;28;20044;-89
2022/01/12 16:21:03;;;;;;;60.97;21.38;;;;;;;3.97;89.33;104001.09;5051553;28;20056;-89
2022/01/12 16:23:30;;;;;;;52.72;19.38;;;;;;;3.94;89.31;103995.72;5063247;28;20043;-90
2022/01/12 16:25:58;;;;;;;61.50;20.50;;;;;;;3.91;88.92;103999.94;5050884;28;20040;-90
2022/01/12 16:28:23;;;;;;;52.92;19.88;;;;;;;3.95;89.33;104005.34;5062560;28;20036;-90
2022/01/12 16:30:50;;;;;;;51.22;17.85;;;;;;;4.00;89.23;104005.53;5049092;28;20074;-90
2022/01/12 16:33:17;;;;;;;53.60;19.67;;;;;;;3.99;89.09;104016.84;5062615;28;20324;-90
2022/01/12 16:35:43;;;;;;;50.70;17.80;;;;;;;3.96;89.00;104009.75;5062032;28;20173;-89
2022/01/12 16:38:10;;;;;;;59.40;19.90;;;;;;;3.92;89.13;104002.63;5066433;28;20136;-90
2022/01/12 16:40:36;;;;;;;55.70;19.80;;;;;;;3.97;88.90;104001.09;5052309;28;20040;-89
2022/01/12 16:43:01;;;;;;;54.63;19.63;;;;;;;3.99;88.70;104003.75;5052749;28;20036;-90
2022/01/12 16:45:27;;;;;;;59.88;21.35;;;;;;;4.06;89.04;104014.53;5048685;28;20506;-90
2022/01/12 16:47:52;;;;;;;64.50;21.48;;;;;;;4.05;89.06;104014.44;5049173;28;20114;-90
2022/01/12 16:50:17;;;;;;;59.25;20.63;;;;;;;4.11;89.02;104019.94;5049916;28;20168;-90
2022/01/12 16:52:42;;;;;;;53.28;20.55;;;;;;;4.07;88.81;104018.91;5063996;28;20463;-90
2022/01/12 16:55:08;;;;;;;61.22;21.02;;;;;;;4.11;88.93;104032.13;5051611;28;20035;-90
2022/01/12 16:57:33;;;;;;;58.10;20.63;;;;;;;4.07;88.87;104042.47;5061759;28;20063;-90
2022/01/12 16:59:59;;;;;;;56.90;21.65;;;;;;;3.98;88.60;104039.50;5049302;28;20036;-90
2022/01/12 17:02:24;;;;;;;65.57;22.10;;;;;;;3.99;88.47;104043.00;5049929;28;20685;-90
2022/01/12 17:04:49;;;;;;;68.28;22.00;;;;;;;3.91;89.02;104040.09;5062407;28;20459;-90
2022/01/12 17:07:15;;;;;;;61.00;21.85;;;;;;;3.89;88.82;104027.78;5053777;28;20123;-90
2022/01/12 17:09:41;;;;;;;57.63;21.00;;;;;;;3.82;89.12;104039.72;5061522;28;20040;-90
2022/01/12 17:12:06;;;;;;;57.55;19.52;;;;;;;3.91;88.71;104049.66;5050362;28;20460;-89
2022/01/12 17:14:32;;;;;;;55.47;19.30;;;;;;;3.88;88.95;104040.00;5062930;28;20036;-89
2022/01/12 17:17:00;;;;;;;52.83;19.98;;;;;;;3.90;88.25;104050.50;5051486;28;20025;-89
2022/01/12 17:19:28;;;;;;;56.88;19.33;;;;;;;3.82;88.92;104048.50;5046927;28;20119;-89
2022/01/12 17:21:53;;;;;;;59.45;20.05;;;;;;;3.85;89.05;104052.94;5052524;28;20056;-90
2022/01/12 17:24:34;;;;;;;54.55;21.35;;;;;;;3.92;88.78;104056.72;5048400;28;20066;-90
2022/01/12 17:27:20;;;;;;;58.90;20.00;;;;;;;3.91;88.91;104057.53;5050367;28;20032;-89
2022/01/12 17:29:45;;;;;;;64.05;21.38;;;;;;;3.87;88.76;104053.91;5060629;28;20040;-88
2022/01/12 17:32:11;;;;;;;61.97;21.17;;;;;;;3.88;88.49;104049.56;5049176;28;20036;-90
2022/01/12 17:34:36;;;;;;;58.65;22.90;;;;;;;3.79;88.42;104047.47;5062995;28;20039;-90
2022/01/12 17:37:07;;;;;;;67.90;24.33;;;;;;;3.72;88.34;104045.44;5061425;28;20032;-90
2022/01/12 17:39:37;;;;;;;61.92;23.02;;;;;;;3.69;88.15;104047.94;5061014;28;20104;-90
2022/01/12 17:42:15;;;;;;;71.00;26.13;;;;;;;3.69;88.63;104053.19;5049446;28;20237;-90
2022/01/12 17:44:43;;;;;;;57.85;20.60;;;;;;;3.60;88.82;104050.19;5048172;28;20796;-90
2022/01/12 17:47:12;;;;;;;66.50;21.35;;;;;;;3.62;88.86;104062.50;5059103;28;20077;-90
2022/01/12 17:52:23;;;;;;;76.25;25.25;;;;;;;3.48;88.83;104056.69;5060856;28;20059;-90
2022/01/12 17:54:54;;;;;;;62.03;22.20;;;;;;;3.52;88.74;104042.91;5047257;28;20056;-90
2022/01/12 17:57:19;;;;;;;65.95;25.70;;;;;;;3.50;88.73;104035.84;5050601;28;20029;-90
2022/01/12 17:59:44;;;;;;;69.82;27.90;;;;;;;3.47;88.64;104038.34;5060999;28;20032;-90
2022/01/12 18:02:10;;;;;;;66.25;22.75;;;;;;;3.50;88.67;104038.47;5048252;28;20016;-89
2022/01/12 18:04:35;;;;;;;71.88;23.27;;;;;;;3.52;88.29;104037.69;5057419;28;20036;-90
2022/01/12 18:07:00;;;;;;;63.60;22.92;;;;;;;3.51;88.81;104032.41;5046803;28;20537;-90
2022/01/12 18:09:27;;;;;;;63.95;22.25;;;;;;;3.50;88.71;104041.09;5046830;28;20031;-90
2022/01/12 18:11:52;;;;;;;60.50;22.58;;;;;;;3.57;88.70;104045.72;5060564;28;20033;-90
2022/01/12 18:14:18;;;;;;;76.38;22.70;;;;;;;3.56;88.77;104052.69;5048983;28;20652;-90
2022/01/12 18:16:49;;;;;;;68.38;23.58;;;;;;;3.53;88.78;104054.28;5060303;28;20074;-90
2022/01/12 18:19:23;;;;;;;65.93;21.67;;;;;;;3.62;88.73;104053.75;5061858;28;20055;-90
2022/01/12 18:21:49;;;;;;;65.82;22.92;;;;;;;3.62;88.53;104056.38;5064577;28;20031;-90
2022/01/12 18:24:15;;;;;;;67.85;22.27;;;;;;;3.62;88.66;104064.22;5062897;28;20059;-90
2022/01/12 18:26:40;;;;;;;59.72;20.95;;;;;;;3.66;88.62;104071.38;5061701;28;20031;-90
2022/01/12 18:29:05;;;;;;;62.15;20.38;;;;;;;3.67;88.54;104067.91;5063623;28;20031;-90
2022/01/12 18:31:31;;;;;;;63.05;23.83;;;;;;;3.64;88.55;104062.53;5063639;28;20064;-90
2022/01/12 18:33:56;;;;;;;61.42;21.52;;;;;;;3.62;88.48;104082.53;5064350;28;20036;-90
2022/01/12 18:36:21;;;;;;;64.22;21.70;;;;;;;3.57;88.24;104075.38;5067770;28;20590;-90
2022/01/12 18:38:49;;;;;;;65.78;22.38;;;;;;;3.59;88.14;104088.56;5051964;28;20491;-90
2022/01/12 18:41:15;;;;;;;58.90;21.65;;;;;;;3.54;88.34;104079.59;5050142;28;20028;-90
2022/01/12 18:43:41;;;;;;;64.47;21.63;;;;;;;3.57;88.61;104071.88;5046776;28;20020;-90
2022/01/12 18:46:09;;;;;;;66.90;24.42;;;;;;;3.61;88.41;104083.38;5050123;28;20033;-90
2022/01/12 18:48:34;;;;;;;64.60;23.58;;;;;;;3.54;88.36;104083.13;5052367;28;20021;-90
2022/01/12 18:51:00;;;;;;;65.18;23.13;;;;;;;3.48;88.31;104069.78;5063726;28;20044;-90
2022/01/12 18:53:25;;;;;;;70.22;22.63;;;;;;;3.47;88.66;104082.81;5064879;28;20628;-90
2022/01/12 18:55:51;;;;;;;64.63;23.65;;;;;;;3.43;88.26;104066.09;5050335;28;20067;-90
2022/01/12 18:58:16;;;;;;;76.80;23.17;;;;;;;3.43;88.65;104073.94;5051815;28;20487;-90
2022/01/12 19:00:42;;;;;;;72.68;26.77;;;;;;;3.30;88.54;104075.13;5050958;28;20028;-90
2022/01/12 19:03:07;;;;;;;38.25;14.68;;;;;;;3.32;88.59;104077.84;5054089;28;20447;-89
2022/01/12 19:05:33;;;;;;;72.22;26.45;;;;;;;3.18;88.88;104077.25;5062132;28;20036;-90
2022/01/12 19:07:59;;;;;;;68.47;23.23;;;;;;;3.22;88.74;104075.66;5062677;28;20036;-90
2022/01/12 19:10:26;;;;;;;75.35;24.02;;;;;;;3.22;88.59;104078.28;5063238;28;20028;-90
2022/01/12 19:12:51;;;;;;;69.28;24.70;;;;;;;3.16;88.83;104078.88;5062172;28;20061;-90
2022/01/12 19:15:17;;;;;;;76.43;24.13;;;;;;;3.19;89.03;104088.59;5061657;28;20032;-90
2022/01/12 19:17:42;;;;;;;78.20;24.67;;;;;;;3.18;89.30;104086.81;5062232;28;20040;-90
2022/01/12 19:20:10;;;;;;;74.72;23.83;;;;;;;3.25;88.83;104083.63;5051755;28;20475;-90
2022/01/12 19:22:36;;;;;;;72.40;23.88;;;;;;;3.20;89.01;104090.38;5051970;28;20035;-90
2022/01/12 19:25:03;;;;;;;72.72;23.77;;;;;;;3.19;89.08;104091.22;5062760;28;20042;-90
2022/01/12 19:27:28;;;;;;;66.63;22.27;;;;;;;3.20;89.06;104098.22;5062012;28;20404;-89
2022/01/12 19:29:53;;;;;;;76.43;26.98;;;;;;;3.07;88.86;104084.59;5050430;28;20121;-90
2022/01/12 19:32:19;;;;;;;59.30;20.33;;;;;;;3.11;89.03;104089.97;5049897;28;20060;-90
2022/01/12 19:34:49;;;;;;;72.60;24.33;;;;;;;3.11;89.21;104084.75;5059047;28;20067;-89
2022/01/12 19:37:20;;;;;;;69.25;23.17;;;;;;;3.22;88.86;104096.59;5049280;28;20055;-90
2022/01/12 19:39:46;;;;;;;65.75;22.33;;;;;;;3.15;89.06;104097.13;5059771;28;20040;-90
2022/01/12 19:42:11;;;;;;;75.07;23.67;;;;;;;3.15;89.44;104097.13;5050704;28;20039;-90
2022/01/12 19:44:37;;;;;;;71.97;24.25;;;;;;;3.08;89.40;104101.22;5047815;28;20391;-90
2022/01/12 19:47:06;;;;;;;77.25;23.58;;;;;;;3.02;89.44;104107.03;5061460;28;20031;-90
2022/01/12 19:49:35;;;;;;;72.53;25.67;;;;;;;2.96;89.55;104116.34;5046716;28;20028;-90
2022/01/12 19:52:13;;;;;;;89.53;28.80;;;;;;;2.77;89.70;104115.53;5062449;28;20033;-90
2022/01/12 19:54:49;;;;;;;84.22;29.02;;;;;;;2.72;90.08;104119.66;5049828;28;20495;-89
2022/01/12 19:57:26;;;;;;;75.35;24.55;;;;;;;2.76;90.28;104116.38;5061183;28;20056;-89
2022/01/12 19:59:54;;;;;;;82.05;25.15;;;;;;;2.73;90.08;104120.56;5052287;28;20047;-89
2022/01/12 20:02:30;;;;;;;82.72;26.08;;;;;;;2.74;90.13;104128.44;5053376;28;20024;-89
2022/01/12 20:05:01;;;;;;;93.20;32.05;;;;;;;2.65;89.88;104122.81;5054596;28;20339;-89
2022/01/12 20:07:27;;;;;;;82.18;27.55;;;;;;;2.73;90.20;104141.44;5050282;28;20024;-89
2022/01/12 20:09:52;;;;;;;69.97;21.33;;;;;;;2.82;89.87;104136.66;5061060;28;20040;-89
2022/01/12 20:12:19;;;;;;;67.95;22.90;;;;;;;2.83;89.42;104135.81;5048836;28;20073;-89
2022/01/12 20:14:45;;;;;;;70.95;22.70;;;;;;;2.76;89.73;104125.94;5053054;28;20047;-89
2022/01/12 20:17:38;;;;;;;81.57;28.52;;;;;;;2.74;89.37;104124.94;5051053;28;20726;-89
2022/01/12 20:22:47;;;;;;;67.05;20.92;;;;;;;2.55;90.21;104118.00;5063774;28;20062;-90
2022/01/12 20:25:14;;;;;;;95.28;30.73;;;;;;;2.45;90.34;104126.25;5062620;28;20137;-89
2022/01/12 20:27:39;;;;;;;75.07;25.85;;;;;;;2.54;90.44;104127.56;5051727;28;20042;-90
2022/01/12 20:30:07;;;;;;;69.03;22.27;;;;;;;2.52;90.57;104105.72;5063132;28;20028;-89
2022/01/12 20:32:33;;;;;;;92.43;27.27;;;;;;;2.52;90.61;104118.78;5055863;28;20118;-89
2022/01/12 20:35:06;;;;;;;93.35;27.52;;;;;;;2.49;91.14;104113.41;5053757;28;20067;-89
2022/01/12 20:37:32;;;;;;;84.95;26.15;;;;;;;2.49;90.58;104118.63;5062005;28;20491;-89
2022/01/12 20:39:58;;;;;;;85.22;24.13;;;;;;;2.53;90.68;104135.31;5063810;28;20107;-89
2022/01/12 20:42:24;;;;;;;74.20;23.23;;;;;;;2.55;90.39;104142.41;5062221;28;20388;-89
2022/01/12 20:44:51;;;;;;;86.03;25.15;;;;;;;2.52;90.66;104138.78;5050477;28;20082;-89
2022/01/12 20:47:18;;;;;;;84.80;22.42;;;;;;;2.51;90.63;104139.56;5061015;28;20028;-89
2022/01/12 20:49:44;;;;;;;68.80;21.40;;;;;;;2.53;90.79;104143.16;5062838;28;20054;-89
2022/01/12 20:52:10;;;;;;;84.15;26.63;;;;;;;2.42;90.65;104142.66;5056703;28;20495;-89
2022/01/12 20:54:36;;;;;;;87.82;25.15;;;;;;;2.45;90.75;104145.41;5049885;28;20387;-89
2022/01/12 20:57:04;;;;;;;98.45;28.40;;;;;;;2.38;90.58;104142.44;5060510;28;20474;-89
2022/01/12 20:59:35;;;;;;;90.47;25.17;;;;;;;2.40;90.93;104152.13;5063495;28;20157;-89
2022/01/12 21:02:03;;;;;;;87.38;25.35;;;;;;;2.46;90.68;104138.47;5049567;28;20032;-89
2022/01/12 21:04:28;;;;;;;104.05;26.70;;;;;;;2.38;90.90;104143.34;5051018;28;20066;-89
2022/01/12 21:06:54;;;;;;;90.78;23.58;;;;;;;2.46;90.87;104151.53;5047425;28;20130;-89
2022/01/12 21:09:19;;;;;;;87.20;24.05;;;;;;;2.36;91.05;104146.69;5039941;28;20020;-89
2022/01/12 21:11:47;;;;;;;105.90;29.85;;;;;;;2.27;90.96;104145.44;5060707;28;20052;-88
2022/01/12 21:14:14;;;;;;;78.32;22.17;;;;;;;2.15;91.41;104126.59;5050506;28;20100;-89
2022/01/12 21:16:39;;;;;;;95.40;24.65;;;;;;;2.17;91.23;104135.38;5050711;28;20028;-89
2022/01/12 21:19:09;;;;;;;92.43;23.40;;;;;;;2.23;91.06;104126.94;5051780;28;20384;-89
2022/01/12 21:21:36;;;;;;;119.70;23.63;;;;;;;2.23;91.02;104126.94;5054150;28;20654;-89
2022/01/12 21:24:01;;;;;;;86.65;22.75;;;;;;;2.22;91.48;104128.66;5048199;28;20024;-89
2022/01/12 21:26:26;;;;;;;145.25;26.13;;;;;;;2.22;91.27;104118.22;5046136;28;20679;-89
2022/01/12 21:28:52;;;;;;;88.47;20.25;;;;;;;2.31;91.54;104130.81;5048132;28;20066;-89
2022/01/12 21:31:17;;;;;;;174.68;30.02;;;;;;;2.22;91.49;104130.38;5050420;28;20337;-89
2022/01/12 21:33:43;;;;;;;154.20;25.73;;;;;;;2.28;91.34;104135.88;5050869;28;20119;-89
2022/01/12 21:36:10;;;;;;;113.80;23.38;;;;;;;2.25;91.63;104141.88;5050065;28;20090;-90
2022/01/12 21:41:17;;;;;;;;;;;;;;;2.25;91.53;104149.72;5063732;28;20038;-89
2022/01/12 21:43:44;;;;;;;105.65;24.08;;;;;;;2.22;91.54;104148.66;5048932;28;19961;-89
2022/01/12 21:46:11;;;;;;;101.38;24.65;;;;;;;2.13;91.83;104156.94;5049310;28;20063;-89
2022/01/12 21:48:36;;;;;;;219.40;44.60;;;;;;;1.96;91.96;104139.59;5051117;28;20043;-90
2022/01/12 21:51:03;;;;;;;121.70;24.60;;;;;;;2.10;91.84;104143.75;5053055;28;20021;-90
2022/01/12 21:53:28;;;;;;;138.85;27.02;;;;;;;2.04;91.89;104130.41;5063637;28;20024;-90
2022/01/12 21:55:53;;;;;;;142.10;30.08;;;;;;;1.95;92.37;104122.13;5052010;28;20043;-90
2022/01/12 21:58:19;;;;;;;120.47;25.05;;;;;;;2.00;92.08;104116.31;5052903;28;20038;-90
2022/01/12 22:00:45;;;;;;;98.75;22.20;;;;;;;2.05;91.91;104108.69;5064545;28;20028;-90
2022/01/12 22:03:10;;;;;;;91.20;21.17;;;;;;;2.07;91.73;104112.28;5055258;28;20020;-89
2022/01/12 22:05:35;;;;;;;163.50;29.08;;;;;;;1.92;92.07;104122.00;5055937;28;20049;-90
2022/01/12 22:08:01;;;;;;;137.77;25.67;;;;;;;1.96;92.15;104114.41;5055667;28;20032;-90
2022/01/12 22:10:27;;;;;;;132.25;24.98;;;;;;;1.93;91.80;104102.91;5054031;28;20024;-89
2022/01/12 22:12:52;;;;;;;177.13;30.05;;;;;;;1.94;92.08;104096.88;5064130;28;20461;-90
2022/01/12 22:15:18;;;;;;;121.13;21.50;;;;;;;1.95;92.21;104104.75;5055810;28;20064;-90
2022/01/12 22:17:43;;;;;;;112.43;19.42;;;;;;;2.06;92.10;104107.00;5054607;28;20097;-90
2022/01/12 22:20:09;;;;;;;141.77;28.25;;;;;;;1.89;92.42;104106.19;5055370;28;20462;-90
2022/01/12 22:22:35;;;;;;;101.60;20.13;;;;;;;1.97;92.29;104089.19;5066779;28;20501;-90
2022/01/12 22:25:00;;;;;;;189.90;31.42;;;;;;;1.93;92.14;104095.09;5050683;28;20033;-89
2022/01/12 22:27:26;;;;;;;107.38;20.20;;;;;;;1.95;92.09;104098.66;5050341;28;20594;-90
2022/01/12 22:29:51;;;;;;;93.30;21.17;;;;;;;1.85;92.34;104102.53;5050932;28;20406;-90
2022/01/12 22:32:17;;;;;;;109.88;27.67;;;;;;;1.80;92.66;104093.59;5053494;28;20059;-90
2022/01/12 22:34:42;;;;;;;86.28;21.35;;;;;;;1.90;92.24;104084.50;5051235;28;20024;-90
2022/01/12 22:37:07;;;;;;;117.45;22.77;;;;;;;1.98;92.25;104101.41;5065004;28;20033;-89
2022/01/12 22:39:33;;;;;;;138.02;26.45;;;;;;;1.91;92.16;104099.31;5056158;28;20514;-90
2022/01/12 22:41:58;;;;;;;157.60;28.15;;;;;;;1.87;92.25;104100.03;5056230;28;20024;-89
2022/01/12 22:44:24;;;;;;;83.28;21.73;;;;;;;1.90;92.75;104103.66;5053696;28;20032;-90
2022/01/12 22:46:49;;;;;;;68.22;19.60;;;;;;;1.98;92.31;104099.69;5053646;28;20028;-90
2022/01/12 22:49:14;;;;;;;62.25;17.33;;;;;;;2.03;91.78;104090.38;5052914;28;20021;-89
2022/01/12 22:51:40;;;;;;;88.22;19.98;;;;;;;2.05;91.75;104100.88;5054379;28;20021;-90
2022/01/12 22:54:07;;;;;;;63.78;17.90;;;;;;;2.12;91.79;104107.28;5056428;28;20060;-90
2022/01/12 22:56:46;;;;;;;77.82;16.90;;;;;;;2.16;91.23;104093.56;5056302;28;20470;-90
2022/01/12 22:59:11;;;;;;;140.98;24.38;;;;;;;2.13;91.69;104091.69;5065811;28;20486;-91
2022/01/12 23:01:37;;;;;;;73.45;16.27;;;;;;;2.10;91.94;104103.69;5052771;28;20241;-90
2022/01/12 23:04:02;;;;;;;110.10;21.85;;;;;;;2.00;91.98;104105.88;5056389;28;20505;-90
2022/01/12 23:06:28;;;;;;;94.88;21.02;;;;;;;1.92;92.00;104101.13;5052835;28;20032;-91
2022/01/12 23:08:53;;;;;;;141.13;28.13;;;;;;;1.82;92.32;104106.69;5053283;28;20032;-90
2022/01/12 23:11:18;;;;;;;120.38;21.13;;;;;;;1.87;92.16;104103.53;5054110;28;20052;-90
2022/01/12 23:13:45;;;;;;;134.45;22.73;;;;;;;1.96;92.21;104103.06;5053848;28;20024;-90
2022/01/12 23:16:10;;;;;;;112.72;18.55;;;;;;;1.93;92.00;104102.91;5052423;28;20036;-90
2022/01/12 23:18:38;;;;;;;179.55;22.83;;;;;;;1.91;92.15;104115.91;5064529;28;20406;-90
2022/01/12 23:21:04;;;;;;;228.15;26.85;;;;;;;1.88;92.40;104114.84;5056920;28;20020;-90
2022/01/12 23:23:29;;;;;;;168.82;22.92;;;;;;;1.89;92.50;104094.03;5066226;28;20490;-91
2022/01/12 23:25:54;;;;;;;161.93;22.30;;;;;;;1.95;92.19;104111.69;5052590;28;20027;-90
2022/01/12 23:28:20;;;;;;;165.73;22.17;;;;;;;1.90;92.42;104114.06;5055543;28;20104;-90
2022/01/12 23:30:46;;;;;;;147.82;22.33;;;;;;;1.96;92.05;104109.19;5045998;28;20266;-91
2022/01/12 23:49:06;;;;;;;147.45;21.10;;;;;;;2.02;92.20;104101.63;5065840;28;20039;-90
2022/01/12 23:51:45;;;;;;;237.98;31.92;;;;;;;1.97;92.59;104116.19;5059004;28;20032;-90
2022/01/12 23:56:56;;;;;;;138.57;18.65;;;;;;;2.18;92.02;104103.22;5065136;28;20046;-90
2022/01/12 23:59:27;;;;;;;225.95;26.48;;;;;;;2.13;92.09;104111.69;5057798;28;20554;-91
